sensor_id;sensor_type;location;lat;lon;timestamp;P1;durP1;ratioP1;P2;durP2;ratioP2
15944;SDS011;30172;48.832;8.732;2022-07-29T00:01:29;6.45;;;5.85;;
15944;SDS011;30172;48.832;8.732;2022-07-29T00:03:55;7.05;;;5.97;;
15944;SDS011;30172;48.832;8.732;2022-07-29T00:06:20;6.05;;;5.30;;
15944;SDS011;30172;48.832;8.732;2022-07-29T00:08:45;6.13;;;4.93;;
15944;SDS011;30172;48.832;8.732;2022-07-29T00:11:11;6.22;;;5.05;;
15944;SDS011;30172;48.832;8.732;2022-07-29T00:13:36;6.22;;;5.28;;
15944;SDS011;30172;48.832;8.732;2022-07-29T00:16:02;5.82;;;5.32;;
15944;SDS011;30172;48.832;8.732;2022-07-29T00:18:27;8.68;;;5.50;;
15944;SDS011;30172;48.832;8.732;2022-07-29T00:20:52;7.78;;;5.53;;
15944;SDS011;30172;48.832;8.732;2022-07-29T00:23:18;6.07;;;5.38;;
15944;SDS011;30172;48.832;8.732;2022-07-29T00:25:43;6.82;;;5.47;;
15944;SDS011;30172;48.832;8.732;2022-07-29T00:28:08;6.55;;;5.95;;
15944;SDS011;30172;48.832;8.732;2022-07-29T00:30:34;6.10;;;5.60;;
15944;SDS011;30172;48.832;8.732;2022-07-29T00:32:59;6.68;;;6.07;;
15944;SDS011;30172;48.832;8.732;2022-07-29T00:35:24;6.47;;;5.88;;
15944;SDS011;30172;48.832;8.732;2022-07-29T00:38:08;6.05;;;5.53;;
15944;SDS011;30172;48.832;8.732;2022-07-29T00:40:33;5.70;;;5.20;;
15944;SDS011;30172;48.832;8.732;2022-07-29T00:42:59;7.30;;;5.53;;
15944;SDS011;30172;48.832;8.732;2022-07-29T00:45:24;6.18;;;5.68;;
15944;SDS011;30172;48.832;8.732;2022-07-29T00:47:50;6.78;;;5.65;;
15944;SDS011;30172;48.832;8.732;2022-07-29T00:50:15;6.65;;;6.05;;
15944;SDS011;30172;48.832;8.732;2022-07-29T00:52:42;6.25;;;5.65;;
15944;SDS011;30172;48.832;8.732;2022-07-29T00:55:11;6.25;;;5.43;;
15944;SDS011;30172;48.832;8.732;2022-07-29T00:57:38;7.65;;;5.97;;
15944;SDS011;30172;48.832;8.732;2022-07-29T01:00:04;6.43;;;5.60;;
15944;SDS011;30172;48.832;8.732;2022-07-29T01:02:31;6.78;;;5.65;;
15944;SDS011;30172;48.832;8.732;2022-07-29T01:04:57;6.30;;;5.55;;
15944;SDS011;30172;48.832;8.732;2022-07-29T01:07:22;6.50;;;5.90;;
15944;SDS011;30172;48.832;8.732;2022-07-29T01:09:49;6.80;;;5.40;;
15944;SDS011;30172;48.832;8.732;2022-07-29T01:12:18;7.55;;;5.72;;
15944;SDS011;30172;48.832;8.732;2022-07-29T01:14:47;6.20;;;5.57;;
15944;SDS011;30172;48.832;8.732;2022-07-29T01:20:07;5.88;;;5.22;;
15944;SDS011;30172;48.832;8.732;2022-07-29T01:25:31;6.25;;;5.35;;
15944;SDS011;30172;48.832;8.732;2022-07-29T01:30:22;6.50;;;5.70;;
15944;SDS011;30172;48.832;8.732;2022-07-29T01:32:50;6.72;;;5.50;;
15944;SDS011;30172;48.832;8.732;2022-07-29T01:35:21;5.72;;;5.15;;
15944;SDS011;30172;48.832;8.732;2022-07-29T01:37:54;5.85;;;5.28;;
15944;SDS011;30172;48.832;8.732;2022-07-29T01:42:51;5.50;;;5.00;;
15944;SDS011;30172;48.832;8.732;2022-07-29T01:45:30;6.00;;;5.28;;
15944;SDS011;30172;48.832;8.732;2022-07-29T01:48:50;6.43;;;5.93;;
15944;SDS011;30172;48.832;8.732;2022-07-29T01:51:15;7.38;;;4.93;;
15944;SDS011;30172;48.832;8.732;2022-07-29T01:54:04;6.45;;;4.97;;
15944;SDS011;30172;48.832;8.732;2022-07-29T01:56:33;6.22;;;5.63;;
15944;SDS011;30172;48.832;8.732;2022-07-29T01:59:01;6.75;;;5.32;;
15944;SDS011;30172;48.832;8.732;2022-07-29T02:01:27;4.72;;;4.32;;
15944;SDS011;30172;48.832;8.732;2022-07-29T02:03:55;5.00;;;4.60;;
15944;SDS011;30172;48.832;8.732;2022-07-29T02:06:22;5.32;;;4.88;;
15944;SDS011;30172;48.832;8.732;2022-07-29T02:08:48;4.72;;;4.32;;
15944;SDS011;30172;48.832;8.732;2022-07-29T02:11:14;6.20;;;4.68;;
15944;SDS011;30172;48.832;8.732;2022-07-29T02:13:40;4.53;;;4.15;;
15944;SDS011;30172;48.832;8.732;2022-07-29T02:16:06;4.55;;;4.15;;
15944;SDS011;30172;48.832;8.732;2022-07-29T02:18:33;5.45;;;4.07;;
15944;SDS011;30172;48.832;8.732;2022-07-29T02:21:01;4.07;;;3.70;;
15944;SDS011;30172;48.832;8.732;2022-07-29T02:23:28;3.92;;;3.60;;
15944;SDS011;30172;48.832;8.732;2022-07-29T02:25:56;4.15;;;3.75;;
15944;SDS011;30172;48.832;8.732;2022-07-29T02:28:22;4.47;;;4.07;;
15944;SDS011;30172;48.832;8.732;2022-07-29T02:30:49;4.00;;;3.63;;
15944;SDS011;30172;48.832;8.732;2022-07-29T02:33:16;4.57;;;3.50;;
15944;SDS011;30172;48.832;8.732;2022-07-29T02:35:45;3.33;;;3.03;;
15944;SDS011;30172;48.832;8.732;2022-07-29T02:38:12;3.78;;;3.42;;
15944;SDS011;30172;48.832;8.732;2022-07-29T02:40:58;3.55;;;3.25;;
15944;SDS011;30172;48.832;8.732;2022-07-29T02:43:25;3.58;;;3.28;;
15944;SDS011;30172;48.832;8.732;2022-07-29T02:45:53;3.28;;;3.05;;
15944;SDS011;30172;48.832;8.732;2022-07-29T02:48:21;3.38;;;3.08;;
15944;SDS011;30172;48.832;8.732;2022-07-29T02:50:49;3.70;;;3.40;;
15944;SDS011;30172;48.832;8.732;2022-07-29T02:53:17;3.17;;;2.88;;
15944;SDS011;30172;48.832;8.732;2022-07-29T02:55:45;4.68;;;3.17;;
15944;SDS011;30172;48.832;8.732;2022-07-29T02:58:33;3.38;;;2.90;;
15944;SDS011;30172;48.832;8.732;2022-07-29T03:01:01;3.60;;;3.20;;
15944;SDS011;30172;48.832;8.732;2022-07-29T03:03:31;3.60;;;3.30;;
15944;SDS011;30172;48.832;8.732;2022-07-29T03:06:00;3.50;;;3.13;;
15944;SDS011;30172;48.832;8.732;2022-07-29T03:08:26;3.50;;;3.20;;
15944;SDS011;30172;48.832;8.732;2022-07-29T03:10:52;3.35;;;3.05;;
15944;SDS011;30172;48.832;8.732;2022-07-29T03:13:18;3.38;;;2.70;;
15944;SDS011;30172;48.832;8.732;2022-07-29T03:15:44;3.28;;;2.97;;
15944;SDS011;30172;48.832;8.732;2022-07-29T03:18:10;3.40;;;3.10;;
15944;SDS011;30172;48.832;8.732;2022-07-29T03:20:36;4.45;;;3.25;;
15944;SDS011;30172;48.832;8.732;2022-07-29T03:23:02;3.22;;;2.92;;
15944;SDS011;30172;48.832;8.732;2022-07-29T03:25:28;2.97;;;2.78;;
15944;SDS011;30172;48.832;8.732;2022-07-29T03:27:53;4.80;;;3.30;;
15944;SDS011;30172;48.832;8.732;2022-07-29T03:30:18;3.80;;;3.40;;
15944;SDS011;30172;48.832;8.732;2022-07-29T03:32:44;3.78;;;3.10;;
15944;SDS011;30172;48.832;8.732;2022-07-29T03:35:09;4.65;;;3.35;;
15944;SDS011;30172;48.832;8.732;2022-07-29T03:37:34;3.90;;;3.47;;
15944;SDS011;30172;48.832;8.732;2022-07-29T03:40:02;4.10;;;3.60;;
15944;SDS011;30172;48.832;8.732;2022-07-29T03:42:30;4.15;;;3.80;;
15944;SDS011;30172;48.832;8.732;2022-07-29T03:44:57;4.80;;;4.30;;
15944;SDS011;30172;48.832;8.732;2022-07-29T03:47:24;5.45;;;4.47;;
15944;SDS011;30172;48.832;8.732;2022-07-29T03:49:51;4.57;;;4.13;;
15944;SDS011;30172;48.832;8.732;2022-07-29T03:52:18;5.03;;;4.40;;
15944;SDS011;30172;48.832;8.732;2022-07-29T03:54:43;5.85;;;4.38;;
15944;SDS011;30172;48.832;8.732;2022-07-29T03:57:09;6.40;;;4.50;;
15944;SDS011;30172;48.832;8.732;2022-07-29T03:59:35;4.93;;;4.43;;
15944;SDS011;30172;48.832;8.732;2022-07-29T04:02:02;4.88;;;4.57;;
15944;SDS011;30172;48.832;8.732;2022-07-29T04:04:28;4.95;;;4.35;;
15944;SDS011;30172;48.832;8.732;2022-07-29T04:06:57;4.93;;;4.35;;
15944;SDS011;30172;48.832;8.732;2022-07-29T04:09:22;5.13;;;4.60;;
15944;SDS011;30172;48.832;8.732;2022-07-29T04:11:48;6.72;;;5.10;;
15944;SDS011;30172;48.832;8.732;2022-07-29T04:14:13;5.88;;;4.70;;
15944;SDS011;30172;48.832;8.732;2022-07-29T04:16:38;5.88;;;4.88;;
15944;SDS011;30172;48.832;8.732;2022-07-29T04:19:04;6.80;;;4.57;;
15944;SDS011;30172;48.832;8.732;2022-07-29T04:21:29;4.82;;;4.43;;
15944;SDS011;30172;48.832;8.732;2022-07-29T04:23:54;5.03;;;4.50;;
15944;SDS011;30172;48.832;8.732;2022-07-29T04:26:20;4.90;;;4.50;;
15944;SDS011;30172;48.832;8.732;2022-07-29T04:28:45;5.20;;;4.70;;
15944;SDS011;30172;48.832;8.732;2022-07-29T04:31:11;5.30;;;4.82;;
15944;SDS011;30172;48.832;8.732;2022-07-29T04:33:37;5.20;;;4.70;;
15944;SDS011;30172;48.832;8.732;2022-07-29T04:36:03;5.53;;;5.13;;
15944;SDS011;30172;48.832;8.732;2022-07-29T04:38:29;4.88;;;4.47;;
15944;SDS011;30172;48.832;8.732;2022-07-29T04:40:54;5.22;;;4.82;;
15944;SDS011;30172;48.832;8.732;2022-07-29T04:43:19;6.43;;;5.25;;
15944;SDS011;30172;48.832;8.732;2022-07-29T04:45:45;5.93;;;5.20;;
15944;SDS011;30172;48.832;8.732;2022-07-29T04:48:10;5.93;;;5.32;;
15944;SDS011;30172;48.832;8.732;2022-07-29T04:50:37;5.97;;;4.82;;
15944;SDS011;30172;48.832;8.732;2022-07-29T04:53:03;6.32;;;4.20;;
15944;SDS011;30172;48.832;8.732;2022-07-29T04:55:28;6.25;;;4.35;;
15944;SDS011;30172;48.832;8.732;2022-07-29T04:57:54;4.13;;;3.72;;
15944;SDS011;30172;48.832;8.732;2022-07-29T05:00:19;4.72;;;3.80;;
15944;SDS011;30172;48.832;8.732;2022-07-29T05:02:44;3.95;;;3.65;;
15944;SDS011;30172;48.832;8.732;2022-07-29T05:05:10;6.78;;;3.67;;
15944;SDS011;30172;48.832;8.732;2022-07-29T05:07:35;4.55;;;3.85;;
15944;SDS011;30172;48.832;8.732;2022-07-29T05:10:00;4.38;;;3.88;;
15944;SDS011;30172;48.832;8.732;2022-07-29T05:12:26;4.50;;;4.10;;
15944;SDS011;30172;48.832;8.732;2022-07-29T05:14:51;4.63;;;4.22;;
15944;SDS011;30172;48.832;8.732;2022-07-29T05:17:16;4.70;;;4.30;;
15944;SDS011;30172;48.832;8.732;2022-07-29T05:19:42;4.45;;;4.00;;
15944;SDS011;30172;48.832;8.732;2022-07-29T05:22:07;5.55;;;3.60;;
15944;SDS011;30172;48.832;8.732;2022-07-29T05:24:32;4.35;;;4.05;;
15944;SDS011;30172;48.832;8.732;2022-07-29T05:26:57;5.53;;;3.80;;
15944;SDS011;30172;48.832;8.732;2022-07-29T05:29:23;3.60;;;3.30;;
15944;SDS011;30172;48.832;8.732;2022-07-29T05:31:48;4.90;;;3.85;;
15944;SDS011;30172;48.832;8.732;2022-07-29T05:34:13;4.30;;;3.90;;
15944;SDS011;30172;48.832;8.732;2022-07-29T05:36:39;4.40;;;3.75;;
15944;SDS011;30172;48.832;8.732;2022-07-29T05:39:04;6.13;;;3.50;;
15944;SDS011;30172;48.832;8.732;2022-07-29T05:41:31;5.43;;;3.65;;
15944;SDS011;30172;48.832;8.732;2022-07-29T05:43:57;4.05;;;3.65;;
15944;SDS011;30172;48.832;8.732;2022-07-29T05:46:23;4.50;;;4.10;;
15944;SDS011;30172;48.832;8.732;2022-07-29T05:48:48;5.05;;;3.92;;
15944;SDS011;30172;48.832;8.732;2022-07-29T05:51:14;4.07;;;3.72;;
15944;SDS011;30172;48.832;8.732;2022-07-29T05:53:39;4.13;;;3.83;;
15944;SDS011;30172;48.832;8.732;2022-07-29T05:56:04;4.53;;;4.13;;
15944;SDS011;30172;48.832;8.732;2022-07-29T05:58:30;4.65;;;4.28;;
15944;SDS011;30172;48.832;8.732;2022-07-29T06:00:55;5.93;;;4.30;;
15944;SDS011;30172;48.832;8.732;2022-07-29T06:03:24;6.50;;;4.65;;
15944;SDS011;30172;48.832;8.732;2022-07-29T06:05:55;5.28;;;4.38;;
15944;SDS011;30172;48.832;8.732;2022-07-29T06:08:20;4.47;;;4.10;;
15944;SDS011;30172;48.832;8.732;2022-07-29T06:10:45;5.05;;;4.55;;
15944;SDS011;30172;48.832;8.732;2022-07-29T06:13:11;4.80;;;4.30;;
15944;SDS011;30172;48.832;8.732;2022-07-29T06:15:37;5.45;;;4.88;;
15944;SDS011;30172;48.832;8.732;2022-07-29T06:18:02;5.18;;;4.65;;
15944;SDS011;30172;48.832;8.732;2022-07-29T06:20:28;5.00;;;4.50;;
15944;SDS011;30172;48.832;8.732;2022-07-29T06:22:54;5.10;;;4.63;;
15944;SDS011;30172;48.832;8.732;2022-07-29T06:25:20;6.05;;;3.97;;
15944;SDS011;30172;48.832;8.732;2022-07-29T06:27:45;4.97;;;4.18;;
15944;SDS011;30172;48.832;8.732;2022-07-29T06:30:11;4.63;;;3.78;;
15944;SDS011;30172;48.832;8.732;2022-07-29T06:32:36;4.93;;;4.50;;
15944;SDS011;30172;48.832;8.732;2022-07-29T06:35:02;5.00;;;4.05;;
15944;SDS011;30172;48.832;8.732;2022-07-29T06:37:28;4.50;;;4.10;;
15944;SDS011;30172;48.832;8.732;2022-07-29T06:39:53;4.22;;;3.92;;
15944;SDS011;30172;48.832;8.732;2022-07-29T06:42:42;5.22;;;3.60;;
15944;SDS011;30172;48.832;8.732;2022-07-29T06:45:08;4.72;;;4.32;;
15944;SDS011;30172;48.832;8.732;2022-07-29T06:47:34;3.90;;;3.35;;
15944;SDS011;30172;48.832;8.732;2022-07-29T06:49:59;6.15;;;4.70;;
15944;SDS011;30172;48.832;8.732;2022-07-29T06:52:24;4.18;;;3.78;;
15944;SDS011;30172;48.832;8.732;2022-07-29T06:54:50;5.13;;;4.13;;
15944;SDS011;30172;48.832;8.732;2022-07-29T06:57:15;5.35;;;3.97;;
15944;SDS011;30172;48.832;8.732;2022-07-29T06:59:40;4.35;;;3.90;;
15944;SDS011;30172;48.832;8.732;2022-07-29T07:02:06;5.30;;;4.00;;
15944;SDS011;30172;48.832;8.732;2022-07-29T07:04:31;4.25;;;3.85;;
15944;SDS011;30172;48.832;8.732;2022-07-29T07:06:56;6.53;;;4.07;;
15944;SDS011;30172;48.832;8.732;2022-07-29T07:09:22;4.68;;;4.38;;
15944;SDS011;30172;48.832;8.732;2022-07-29T07:11:48;5.03;;;4.18;;
15944;SDS011;30172;48.832;8.732;2022-07-29T07:14:13;4.80;;;3.90;;
15944;SDS011;30172;48.832;8.732;2022-07-29T07:16:38;4.55;;;4.00;;
15944;SDS011;30172;48.832;8.732;2022-07-29T07:19:04;6.10;;;4.10;;
15944;SDS011;30172;48.832;8.732;2022-07-29T07:21:29;7.07;;;5.35;;
15944;SDS011;30172;48.832;8.732;2022-07-29T07:23:54;6.65;;;4.45;;
15944;SDS011;30172;48.832;8.732;2022-07-29T07:26:20;4.18;;;3.78;;
15944;SDS011;30172;48.832;8.732;2022-07-29T07:28:45;5.07;;;4.63;;
15944;SDS011;30172;48.832;8.732;2022-07-29T07:31:11;4.53;;;3.90;;
15944;SDS011;30172;48.832;8.732;2022-07-29T07:33:36;4.00;;;3.60;;
15944;SDS011;30172;48.832;8.732;2022-07-29T07:36:02;5.72;;;3.92;;
15944;SDS011;30172;48.832;8.732;2022-07-29T07:38:28;6.80;;;3.88;;
15944;SDS011;30172;48.832;8.732;2022-07-29T07:40:53;4.85;;;4.05;;
15944;SDS011;30172;48.832;8.732;2022-07-29T07:43:18;6.53;;;4.03;;
15944;SDS011;30172;48.832;8.732;2022-07-29T07:45:44;6.10;;;4.50;;
15944;SDS011;30172;48.832;8.732;2022-07-29T07:48:09;4.43;;;4.03;;
15944;SDS011;30172;48.832;8.732;2022-07-29T07:50:35;5.88;;;4.32;;
15944;SDS011;30172;48.832;8.732;2022-07-29T07:53:01;4.50;;;4.10;;
15944;SDS011;30172;48.832;8.732;2022-07-29T07:55:27;5.25;;;4.30;;
15944;SDS011;30172;48.832;8.732;2022-07-29T07:57:53;4.30;;;3.75;;
15944;SDS011;30172;48.832;8.732;2022-07-29T08:00:19;7.25;;;4.03;;
15944;SDS011;30172;48.832;8.732;2022-07-29T08:02:44;5.15;;;4.18;;
15944;SDS011;30172;48.832;8.732;2022-07-29T08:05:10;7.47;;;3.90;;
15944;SDS011;30172;48.832;8.732;2022-07-29T08:07:37;10.85;;;4.32;;
15944;SDS011;30172;48.832;8.732;2022-07-29T08:10:03;9.30;;;5.05;;
15944;SDS011;30172;48.832;8.732;2022-07-29T08:12:31;4.90;;;4.40;;
15944;SDS011;30172;48.832;8.732;2022-07-29T08:14:56;6.85;;;4.10;;
15944;SDS011;30172;48.832;8.732;2022-07-29T08:17:21;6.47;;;4.30;;
15944;SDS011;30172;48.832;8.732;2022-07-29T08:19:47;4.32;;;3.90;;
15944;SDS011;30172;48.832;8.732;2022-07-29T08:22:13;5.18;;;4.50;;
15944;SDS011;30172;48.832;8.732;2022-07-29T08:24:38;9.90;;;4.63;;
15944;SDS011;30172;48.832;8.732;2022-07-29T08:27:20;8.85;;;4.88;;
15944;SDS011;30172;48.832;8.732;2022-07-29T08:29:46;10.70;;;4.40;;
15944;SDS011;30172;48.832;8.732;2022-07-29T08:32:11;7.40;;;4.22;;
15944;SDS011;30172;48.832;8.732;2022-07-29T08:34:36;4.75;;;4.35;;
15944;SDS011;30172;48.832;8.732;2022-07-29T08:37:02;7.32;;;4.10;;
15944;SDS011;30172;48.832;8.732;2022-07-29T08:39:27;5.10;;;4.50;;
15944;SDS011;30172;48.832;8.732;2022-07-29T08:41:52;7.55;;;4.63;;
15944;SDS011;30172;48.832;8.732;2022-07-29T08:44:19;8.48;;;4.75;;
15944;SDS011;30172;48.832;8.732;2022-07-29T08:46:46;6.32;;;4.70;;
15944;SDS011;30172;48.832;8.732;2022-07-29T08:49:12;8.63;;;4.35;;
15944;SDS011;30172;48.832;8.732;2022-07-29T08:51:39;6.30;;;4.68;;
15944;SDS011;30172;48.832;8.732;2022-07-29T08:54:05;7.60;;;4.10;;
15944;SDS011;30172;48.832;8.732;2022-07-29T08:56:30;5.43;;;4.50;;
15944;SDS011;30172;48.832;8.732;2022-07-29T08:58:57;7.38;;;4.43;;
15944;SDS011;30172;48.832;8.732;2022-07-29T09:01:24;8.90;;;4.90;;
15944;SDS011;30172;48.832;8.732;2022-07-29T09:03:50;7.30;;;4.50;;
15944;SDS011;30172;48.832;8.732;2022-07-29T09:06:20;4.93;;;4.07;;
15944;SDS011;30172;48.832;8.732;2022-07-29T09:08:46;7.15;;;4.30;;
15944;SDS011;30172;48.832;8.732;2022-07-29T09:11:12;6.90;;;4.60;;
15944;SDS011;30172;48.832;8.732;2022-07-29T09:13:38;7.80;;;4.50;;
15944;SDS011;30172;48.832;8.732;2022-07-29T09:16:04;7.75;;;4.35;;
15944;SDS011;30172;48.832;8.732;2022-07-29T09:18:32;6.03;;;4.60;;
15944;SDS011;30172;48.832;8.732;2022-07-29T09:20:59;6.05;;;4.32;;
15944;SDS011;30172;48.832;8.732;2022-07-29T09:24:00;7.10;;;4.53;;
15944;SDS011;30172;48.832;8.732;2022-07-29T09:26:30;8.82;;;4.10;;
15944;SDS011;30172;48.832;8.732;2022-07-29T09:28:56;5.85;;;3.92;;
15944;SDS011;30172;48.832;8.732;2022-07-29T09:31:35;7.22;;;4.88;;
15944;SDS011;30172;48.832;8.732;2022-07-29T09:34:04;5.38;;;4.10;;
15944;SDS011;30172;48.832;8.732;2022-07-29T09:36:30;4.05;;;3.75;;
15944;SDS011;30172;48.832;8.732;2022-07-29T09:38:59;4.50;;;3.92;;
15944;SDS011;30172;48.832;8.732;2022-07-29T09:41:25;7.63;;;4.07;;
15944;SDS011;30172;48.832;8.732;2022-07-29T09:43:58;4.68;;;3.90;;
15944;SDS011;30172;48.832;8.732;2022-07-29T09:46:24;10.18;;;4.05;;
15944;SDS011;30172;48.832;8.732;2022-07-29T09:49:06;6.72;;;3.55;;
15944;SDS011;30172;48.832;8.732;2022-07-29T09:51:35;6.15;;;3.60;;
15944;SDS011;30172;48.832;8.732;2022-07-29T09:54:00;5.75;;;3.85;;
15944;SDS011;30172;48.832;8.732;2022-07-29T09:56:41;6.68;;;3.20;;
15944;SDS011;30172;48.832;8.732;2022-07-29T09:59:07;6.10;;;3.50;;
15944;SDS011;30172;48.832;8.732;2022-07-29T10:01:33;5.90;;;3.60;;
15944;SDS011;30172;48.832;8.732;2022-07-29T10:03:59;7.65;;;3.35;;
15944;SDS011;30172;48.832;8.732;2022-07-29T10:06:24;11.60;;;3.72;;
15944;SDS011;30172;48.832;8.732;2022-07-29T10:08:52;5.30;;;3.75;;
15944;SDS011;30172;48.832;8.732;2022-07-29T10:11:17;7.47;;;3.25;;
15944;SDS011;30172;48.832;8.732;2022-07-29T10:13:44;3.85;;;3.40;;
15944;SDS011;30172;48.832;8.732;2022-07-29T10:16:10;4.88;;;3.40;;
15944;SDS011;30172;48.832;8.732;2022-07-29T10:18:37;5.35;;;3.42;;
15944;SDS011;30172;48.832;8.732;2022-07-29T10:21:03;3.97;;;3.22;;
15944;SDS011;30172;48.832;8.732;2022-07-29T10:23:29;5.97;;;3.35;;
15944;SDS011;30172;48.832;8.732;2022-07-29T10:25:54;6.43;;;3.42;;
15944;SDS011;30172;48.832;8.732;2022-07-29T10:28:20;9.48;;;3.83;;
15944;SDS011;30172;48.832;8.732;2022-07-29T10:30:45;5.90;;;3.28;;
15944;SDS011;30172;48.832;8.732;2022-07-29T10:41:14;6.95;;;3.72;;
15944;SDS011;30172;48.832;8.732;2022-07-29T10:43:54;3.70;;;3.20;;
15944;SDS011;30172;48.832;8.732;2022-07-29T10:46:22;3.70;;;3.20;;
15944;SDS011;30172;48.832;8.732;2022-07-29T10:52:06;8.20;;;3.35;;
15944;SDS011;30172;48.832;8.732;2022-07-29T10:54:48;6.75;;;3.20;;
15944;SDS011;30172;48.832;8.732;2022-07-29T10:59:44;6.60;;;3.03;;
15944;SDS011;30172;48.832;8.732;2022-07-29T11:02:53;6.63;;;3.13;;
15944;SDS011;30172;48.832;8.732;2022-07-29T11:07:28;7.38;;;3.47;;
15944;SDS011;30172;48.832;8.732;2022-07-29T11:20:36;5.40;;;3.70;;
15944;SDS011;30172;48.832;8.732;2022-07-29T11:23:26;6.03;;;3.50;;
15944;SDS011;30172;48.832;8.732;2022-07-29T11:34:17;4.97;;;3.30;;
15944;SDS011;30172;48.832;8.732;2022-07-29T11:39:34;7.13;;;4.07;;
15944;SDS011;30172;48.832;8.732;2022-07-29T11:47:19;6.05;;;3.60;;
15944;SDS011;30172;48.832;8.732;2022-07-29T11:49:45;4.13;;;3.75;;
15944;SDS011;30172;48.832;8.732;2022-07-29T11:52:10;4.25;;;3.75;;
15944;SDS011;30172;48.832;8.732;2022-07-29T11:54:36;5.50;;;3.97;;
15944;SDS011;30172;48.832;8.732;2022-07-29T11:57:03;6.45;;;3.72;;
15944;SDS011;30172;48.832;8.732;2022-07-29T11:59:31;4.22;;;3.85;;
15944;SDS011;30172;48.832;8.732;2022-07-29T12:02:04;5.63;;;3.78;;
15944;SDS011;30172;48.832;8.732;2022-07-29T12:04:29;7.63;;;4.43;;
15944;SDS011;30172;48.832;8.732;2022-07-29T12:06:55;3.72;;;3.35;;
15944;SDS011;30172;48.832;8.732;2022-07-29T12:09:21;7.10;;;4.13;;
15944;SDS011;30172;48.832;8.732;2022-07-29T12:11:48;7.85;;;3.80;;
15944;SDS011;30172;48.832;8.732;2022-07-29T12:14:27;7.10;;;4.05;;
15944;SDS011;30172;48.832;8.732;2022-07-29T12:16:53;6.38;;;3.78;;
15944;SDS011;30172;48.832;8.732;2022-07-29T12:19:18;6.20;;;4.22;;
15944;SDS011;30172;48.832;8.732;2022-07-29T12:21:51;6.78;;;3.55;;
15944;SDS011;30172;48.832;8.732;2022-07-29T12:24:18;6.10;;;3.60;;
15944;SDS011;30172;48.832;8.732;2022-07-29T12:26:54;4.78;;;3.60;;
15944;SDS011;30172;48.832;8.732;2022-07-29T12:29:20;5.22;;;4.05;;
15944;SDS011;30172;48.832;8.732;2022-07-29T12:31:46;4.53;;;4.05;;
15944;SDS011;30172;48.832;8.732;2022-07-29T12:34:18;4.90;;;4.15;;
15944;SDS011;30172;48.832;8.732;2022-07-29T12:36:44;7.45;;;4.18;;
15944;SDS011;30172;48.832;8.732;2022-07-29T12:39:10;6.10;;;3.67;;
15944;SDS011;30172;48.832;8.732;2022-07-29T12:41:36;6.60;;;4.00;;
15944;SDS011;30172;48.832;8.732;2022-07-29T12:44:02;4.47;;;3.58;;
15944;SDS011;30172;48.832;8.732;2022-07-29T12:46:27;6.03;;;3.42;;
15944;SDS011;30172;48.832;8.732;2022-07-29T12:48:53;7.65;;;3.88;;
15944;SDS011;30172;48.832;8.732;2022-07-29T12:51:38;7.07;;;3.70;;
15944;SDS011;30172;48.832;8.732;2022-07-29T12:54:14;3.58;;;3.28;;
15944;SDS011;30172;48.832;8.732;2022-07-29T12:56:40;6.57;;;3.60;;
15944;SDS011;30172;48.832;8.732;2022-07-29T13:01:39;5.57;;;3.80;;
15944;SDS011;30172;48.832;8.732;2022-07-29T13:04:04;5.20;;;3.40;;
15944;SDS011;30172;48.832;8.732;2022-07-29T13:06:39;7.43;;;3.88;;
15944;SDS011;30172;48.832;8.732;2022-07-29T13:09:07;4.80;;;3.13;;
15944;SDS011;30172;48.832;8.732;2022-07-29T13:11:35;9.88;;;3.10;;
15944;SDS011;30172;48.832;8.732;2022-07-29T13:14:02;6.45;;;2.80;;
15944;SDS011;30172;48.832;8.732;2022-07-29T13:16:27;4.00;;;2.67;;
15944;SDS011;30172;48.832;8.732;2022-07-29T13:19:06;5.65;;;3.08;;
15944;SDS011;30172;48.832;8.732;2022-07-29T13:21:33;15.75;;;3.80;;
15944;SDS011;30172;48.832;8.732;2022-07-29T13:23:58;8.45;;;2.50;;
15944;SDS011;30172;48.832;8.732;2022-07-29T13:26:26;5.68;;;3.00;;
15944;SDS011;30172;48.832;8.732;2022-07-29T13:28:54;5.85;;;2.67;;
15944;SDS011;30172;48.832;8.732;2022-07-29T13:31:20;4.32;;;2.75;;
15944;SDS011;30172;48.832;8.732;2022-07-29T13:33:46;6.72;;;2.70;;
15944;SDS011;30172;48.832;8.732;2022-07-29T13:36:12;7.93;;;2.70;;
15944;SDS011;30172;48.832;8.732;2022-07-29T13:38:37;3.30;;;2.58;;
15944;SDS011;30172;48.832;8.732;2022-07-29T13:41:03;3.47;;;2.40;;
15944;SDS011;30172;48.832;8.732;2022-07-29T13:43:31;5.93;;;2.60;;
15944;SDS011;30172;48.832;8.732;2022-07-29T13:45:57;2.63;;;2.38;;
15944;SDS011;30172;48.832;8.732;2022-07-29T13:48:22;2.90;;;2.00;;
15944;SDS011;30172;48.832;8.732;2022-07-29T13:50:47;4.85;;;2.33;;
15944;SDS011;30172;48.832;8.732;2022-07-29T14:29:06;2.35;;;2.05;;
15944;SDS011;30172;48.832;8.732;2022-07-29T14:31:32;3.30;;;2.30;;
15944;SDS011;30172;48.832;8.732;2022-07-29T14:33:57;4.53;;;2.30;;
15944;SDS011;30172;48.832;8.732;2022-07-29T14:36:22;6.03;;;2.50;;
15944;SDS011;30172;48.832;8.732;2022-07-29T14:38:48;8.75;;;2.10;;
15944;SDS011;30172;48.832;8.732;2022-07-29T14:41:14;3.65;;;1.90;;
15944;SDS011;30172;48.832;8.732;2022-07-29T14:43:39;3.45;;;2.50;;
15944;SDS011;30172;48.832;8.732;2022-07-29T14:46:05;10.82;;;2.85;;
15944;SDS011;30172;48.832;8.732;2022-07-29T14:48:31;9.20;;;2.50;;
15944;SDS011;30172;48.832;8.732;2022-07-29T14:50:57;3.88;;;2.00;;
15944;SDS011;30172;48.832;8.732;2022-07-29T14:53:23;7.68;;;2.30;;
15944;SDS011;30172;48.832;8.732;2022-07-29T14:55:49;4.53;;;2.53;;
15944;SDS011;30172;48.832;8.732;2022-07-29T14:58:14;7.70;;;2.45;;
15944;SDS011;30172;48.832;8.732;2022-07-29T15:00:40;3.38;;;2.65;;
15944;SDS011;30172;48.832;8.732;2022-07-29T15:03:05;12.23;;;2.38;;
15944;SDS011;30172;48.832;8.732;2022-07-29T15:05:31;10.15;;;2.58;;
15944;SDS011;30172;48.832;8.732;2022-07-29T15:07:56;4.72;;;2.38;;
15944;SDS011;30172;48.832;8.732;2022-07-29T15:10:22;7.18;;;2.20;;
15944;SDS011;30172;48.832;8.732;2022-07-29T15:12:47;6.03;;;2.55;;
15944;SDS011;30172;48.832;8.732;2022-07-29T15:15:12;4.18;;;2.78;;
15944;SDS011;30172;48.832;8.732;2022-07-29T15:17:38;4.10;;;2.67;;
15944;SDS011;30172;48.832;8.732;2022-07-29T15:20:03;6.72;;;2.60;;
15944;SDS011;30172;48.832;8.732;2022-07-29T15:22:29;4.88;;;2.75;;
15944;SDS011;30172;48.832;8.732;2022-07-29T15:24:54;5.38;;;2.90;;
15944;SDS011;30172;48.832;8.732;2022-07-29T15:27:19;4.43;;;2.55;;
15944;SDS011;30172;48.832;8.732;2022-07-29T15:29:45;4.72;;;2.50;;
15944;SDS011;30172;48.832;8.732;2022-07-29T15:32:10;8.23;;;2.60;;
15944;SDS011;30172;48.832;8.732;2022-07-29T15:34:36;3.88;;;2.33;;
15944;SDS011;30172;48.832;8.732;2022-07-29T15:37:02;4.05;;;2.33;;
15944;SDS011;30172;48.832;8.732;2022-07-29T15:39:28;3.75;;;2.58;;
15944;SDS011;30172;48.832;8.732;2022-07-29T15:41:53;3.40;;;2.50;;
15944;SDS011;30172;48.832;8.732;2022-07-29T15:44:19;3.53;;;2.78;;
15944;SDS011;30172;48.832;8.732;2022-07-29T15:46:44;3.90;;;2.47;;
15944;SDS011;30172;48.832;8.732;2022-07-29T15:49:28;4.40;;;2.60;;
15944;SDS011;30172;48.832;8.732;2022-07-29T15:52:02;6.00;;;2.58;;
15944;SDS011;30172;48.832;8.732;2022-07-29T15:54:31;8.20;;;2.30;;
15944;SDS011;30172;48.832;8.732;2022-07-29T15:56:57;5.15;;;2.35;;
15944;SDS011;30172;48.832;8.732;2022-07-29T15:59:22;6.53;;;2.53;;
15944;SDS011;30172;48.832;8.732;2022-07-29T16:01:47;5.28;;;2.22;;
15944;SDS011;30172;48.832;8.732;2022-07-29T16:04:13;5.32;;;2.50;;
15944;SDS011;30172;48.832;8.732;2022-07-29T16:06:38;12.30;;;2.55;;
15944;SDS011;30172;48.832;8.732;2022-07-29T16:09:04;3.55;;;2.40;;
15944;SDS011;30172;48.832;8.732;2022-07-29T16:11:29;4.57;;;2.50;;
15944;SDS011;30172;48.832;8.732;2022-07-29T16:13:54;7.93;;;2.78;;
15944;SDS011;30172;48.832;8.732;2022-07-29T16:16:20;6.85;;;2.78;;
15944;SDS011;30172;48.832;8.732;2022-07-29T16:18:45;4.72;;;2.60;;
15944;SDS011;30172;48.832;8.732;2022-07-29T16:21:11;5.63;;;2.75;;